Time;durP1;ratioP1;P1;durP2;ratioP2;P2;SDS_P1;SDS_P2;PMS_P1;PMS_P2;Temp;Humidity;BMP_temperature;BMP_pressure;BME280_temperature;BME280_humidity;BME280_pressure;Samples;Min_cycle;Max_cycle;Signal;HPM_P1;HPM_P2
2022/03/02 00:01:57;;;;;;;14.90;11.97;;;5.20;99.90;;;;;;5026318;28;20401;-83
2022/03/02 00:04:23;;;;;;;13.73;10.63;;;5.20;99.90;;;;;;5027809;28;20493;-83
2022/03/02 00:06:56;;;;;;;13.30;11.40;;;5.10;99.90;;;;;;5025902;28;21117;-83
2022/03/02 00:09:22;;;;;;;16.53;11.90;;;5.30;99.90;;;;;;5027504;28;20462;-83
2022/03/02 00:11:47;;;;;;;15.50;11.50;;;5.30;99.90;;;;;;5008095;28;20497;-84
2022/03/02 00:14:14;;;;;;;15.83;12.37;;;5.30;99.90;;;;;;5026603;28;20676;-83
2022/03/02 00:16:42;;;;;;;16.20;11.83;;;5.80;99.90;;;;;;5025583;28;20192;-84
2022/03/02 00:19:08;;;;;;;15.38;11.95;;;8.10;99.90;;;;;;5009612;28;20407;-83
2022/03/02 00:21:35;;;;;;;14.65;10.38;;;6.30;99.90;;;;;;5035856;28;20183;-84
2022/03/02 00:24:04;;;;;;;12.03;10.83;;;5.20;99.90;;;;;;5026796;28;20227;-83
2022/03/02 00:26:33;;;;;;;16.57;11.90;;;7.80;99.90;;;;;;5007354;28;20799;-83
2022/03/02 00:28:59;;;;;;;13.70;12.23;;;6.70;99.90;;;;;;5025942;28;20475;-83
2022/03/02 00:31:24;;;;;;;14.60;12.00;;;5.70;99.90;;;;;;5024995;28;20417;-82
2022/03/02 00:33:54;;;;;;;14.00;11.30;;;7.30;99.90;;;;;;5009360;28;20523;-82
2022/03/02 00:36:21;;;;;;;16.83;11.53;;;5.50;99.90;;;;;;5007152;28;20405;-83
2022/03/02 00:38:46;;;;;;;14.30;11.10;;;6.10;99.90;;;;;;5027259;28;20767;-84
2022/03/02 00:41:12;;;;;;;14.50;11.97;;;5.60;99.90;;;;;;5024866;28;20400;-83
2022/03/02 00:43:38;;;;;;;14.77;11.33;;;8.10;99.90;;;;;;5026782;28;20426;-83
2022/03/02 00:46:04;;;;;;;13.10;11.70;;;7.60;99.90;;;;;;5009821;28;20187;-83
2022/03/02 00:48:29;;;;;;;17.20;13.27;;;4.80;99.90;;;;;;5008274;28;20234;-83
2022/03/02 00:50:56;;;;;;;17.13;10.97;;;5.30;99.90;;;;;;5026947;28;20184;-83
2022/03/02 00:53:22;;;;;;;13.63;11.20;;;3.80;99.90;;;;;;5037914;28;20421;-83
2022/03/02 00:55:49;;;;;;;12.00;10.60;;;4.90;99.90;;;;;;5027065;28;20445;-83
2022/03/02 00:58:15;;;;;;;18.30;12.07;;;8.50;99.90;;;;;;5011058;28;20973;-83
2022/03/02 01:00:43;;;;;;;13.80;11.40;;;5.80;99.90;;;;;;5008768;28;20916;-83
2022/03/02 01:03:09;;;;;;;13.87;10.77;;;5.00;99.90;;;;;;5024994;28;20445;-83
2022/03/02 01:05:39;;;;;;;11.70;10.27;;;6.20;99.90;;;;;;5026645;28;20409;-83
2022/03/02 01:08:06;;;;;;;10.90;9.43;;;4.50;99.90;;;;;;5007198;28;20223;-83
2022/03/02 01:10:32;;;;;;;11.40;10.20;;;5.70;99.90;;;;;;5008687;28;20451;-83
2022/03/02 01:12:57;;;;;;;10.57;9.37;;;7.20;99.90;;;;;;5007174;28;20673;-83
2022/03/02 01:15:23;;;;;;;10.57;9.47;;;5.40;99.90;;;;;;5026463;28;21022;-83
2022/03/02 01:17:49;;;;;;;11.77;10.60;;;5.40;99.90;;;;;;5024962;28;20266;-83
2022/03/02 01:20:37;;;;;;;;;;;;;;;;;;;;;
2022/03/02 01:23:03;;;;;;;12.43;10.23;;;5.00;99.90;;;;;;5025176;28;20221;-83
2022/03/02 01:25:29;;;;;;;12.50;10.40;;;4.80;99.90;;;;;;5026382;28;20525;-83
2022/03/02 01:27:54;;;;;;;12.03;10.13;;;7.20;99.90;;;;;;5014450;28;20254;-83
2022/03/02 01:30:23;;;;;;;10.20;9.20;;;3.50;99.90;;;;;;5008610;28;20198;-83
2022/03/02 01:32:51;;;;;;;13.20;10.23;;;4.70;99.90;;;;;;5024823;28;20234;-83
2022/03/02 01:35:17;;;;;;;11.90;8.73;;;2.40;99.90;;;;;;5027423;28;20456;-83
2022/03/02 01:37:43;;;;;;;12.50;9.40;;;6.50;99.90;;;;;;5020847;28;21023;-83
2022/03/02 01:40:09;;;;;;;14.37;9.50;;;4.30;99.90;;;;;;5012884;28;20410;-83
2022/03/02 01:42:42;;;;;;;14.90;10.90;;;5.30;99.90;;;;;;5028213;28;20466;-83
2022/03/02 01:45:11;;;;;;;12.27;9.87;;;4.60;99.90;;;;;;5018693;28;20441;-83
2022/03/02 01:47:37;;;;;;;14.60;9.53;;;5.70;99.90;;;;;;5010127;28;20520;-82
2022/03/02 01:50:11;;;;;;;12.07;8.93;;;3.90;99.90;;;;;;5012325;28;20413;-83
2022/03/02 01:52:36;;;;;;;12.53;10.80;;;3.90;99.90;;;;;;5013085;28;20511;-82
2022/03/02 01:55:04;;;;;;;11.57;10.37;;;3.40;99.90;;;;;;5012778;28;21004;-83
2022/03/02 01:57:29;;;;;;;11.60;9.93;;;3.90;99.90;;;;;;5024373;28;20224;-82
2022/03/02 01:59:55;;;;;;;15.20;10.27;;;4.60;99.90;;;;;;5028953;28;20451;-83
2022/03/02 02:02:21;;;;;;;15.10;10.97;;;3.80;99.90;;;;;;5028173;28;20201;-83
2022/03/02 02:04:53;;;;;;;14.27;11.07;;;3.70;99.90;;;;;;5030697;28;20188;-86
2022/03/02 02:07:22;;;;;;;15.63;10.95;;;3.70;99.90;;;;;;5010205;28;20258;-83
2022/03/02 02:09:52;;;;;;;18.30;12.63;;;5.30;99.90;;;;;;5013396;28;20242;-82
2022/03/02 02:12:26;;;;;;;17.63;12.43;;;5.80;99.90;;;;;;4316557;28;10000815;-83
2022/03/02 02:14:52;;;;;;;11.80;9.23;;;5.60;99.90;;;;;;5022047;28;20463;-83
2022/03/02 02:17:20;;;;;;;12.50;10.63;;;3.20;99.90;;;;;;5014747;28;20441;-83
2022/03/02 02:19:48;;;;;;;11.57;10.37;;;4.00;99.90;;;;;;5020752;28;20207;-83
2022/03/02 02:22:14;;;;;;;11.67;10.30;;;6.80;99.90;;;;;;5019243;28;21057;-83
2022/03/02 02:24:39;;;;;;;13.40;10.20;;;4.20;99.90;;;;;;5035357;28;20499;-83
2022/03/02 02:27:06;;;;;;;14.33;9.43;;;4.50;99.90;;;;;;5011157;28;20728;-83
2022/03/02 02:29:36;;;;;;;11.60;9.53;;;4.20;99.90;;;;;;5029657;28;20225;-83
2022/03/02 02:32:03;;;;;;;9.93;8.90;;;4.20;99.90;;;;;;5011759;28;20859;-83
2022/03/02 02:34:29;;;;;;;10.10;9.10;;;4.20;99.90;;;;;;5008255;28;20526;-82
2022/03/02 02:36:55;;;;;;;11.30;10.10;;;4.30;99.90;;;;;;5031652;28;20549;-83
2022/03/02 02:39:24;;;;;;;12.03;10.10;;;4.20;99.90;;;;;;5037786;28;20206;-82
2022/03/02 02:41:50;;;;;;;11.63;10.30;;;4.20;99.90;;;;;;5029267;28;20532;-83
2022/03/02 02:44:15;;;;;;;12.00;10.73;;;4.40;99.90;;;;;;5034156;28;20532;-82
2022/03/02 02:46:42;;;;;;;11.67;9.03;;;4.20;99.90;;;;;;5033698;28;20244;-83
2022/03/02 02:49:08;;;;;;;9.63;8.70;;;4.20;99.90;;;;;;5010017;28;20655;-82
2022/03/02 02:51:34;;;;;;;10.33;9.20;;;4.20;99.90;;;;;;5026611;28;20529;-82
2022/03/02 02:54:01;;;;;;;12.63;10.17;;;4.60;99.90;;;;;;5010707;28;20241;-82
2022/03/02 02:56:27;;;;;;;20.70;9.03;;;5.40;99.90;;;;;;5027325;28;20492;-82
2022/03/02 02:58:53;;;;;;;10.17;9.17;;;4.30;99.90;;;;;;5028948;28;20472;-82
2022/03/02 03:01:19;;;;;;;11.93;9.70;;;6.40;99.90;;;;;;5026866;28;20482;-82
2022/03/02 03:03:46;;;;;;;11.53;10.37;;;5.70;99.90;;;;;;5010858;28;20894;-81
2022/03/02 03:06:12;;;;;;;10.70;9.32;;;5.20;99.90;;;;;;5008881;28;20240;-82
2022/03/02 03:08:38;;;;;;;13.27;9.80;;;;;;;;;;5010511;28;20206;-82
2022/03/02 03:11:04;;;;;;;13.52;10.32;;;3.70;99.90;;;;;;5026966;28;20180;-82
2022/03/02 03:13:30;;;;;;;11.10;9.13;;;3.10;99.90;;;;;;5010759;28;20647;-82
2022/03/02 03:15:55;;;;;;;12.77;11.20;;;3.80;99.90;;;;;;5008646;28;20208;-82
2022/03/02 03:18:21;;;;;;;11.73;10.63;;;3.50;99.90;;;;;;5010460;28;20187;-82
2022/03/02 03:20:47;;;;;;;12.50;9.13;;;3.30;99.90;;;;;;5026471;28;20639;-82
2022/03/02 03:23:12;;;;;;;10.10;9.00;;;3.40;99.90;;;;;;5028903;28;20172;-82
2022/03/02 03:25:41;;;;;;;11.70;10.27;;;3.30;99.90;;;;;;5008710;28;20220;-82
2022/03/02 03:28:07;;;;;;;11.00;9.90;;;3.30;99.90;;;;;;5028513;28;20288;-82
2022/03/02 03:30:33;;;;;;;10.40;8.83;;;2.80;99.90;;;;;;5008156;28;20521;-82
2022/03/02 03:33:04;;;;;;;10.77;9.50;;;3.50;99.90;;;;;;5009861;28;20176;-83
2022/03/02 03:35:36;;;;;;;14.35;9.50;;;2.70;99.90;;;;;;4991425;28;20434;-83
2022/03/02 03:38:02;;;;;;;13.80;11.35;;;5.50;99.90;;;;;;5010427;28;20273;-82
2022/03/02 03:40:28;;;;;;;12.38;10.43;;;3.90;99.90;;;;;;5023194;28;20659;-82
2022/03/02 03:42:56;;;;;;;11.70;9.70;;;5.70;99.90;;;;;;5001780;28;20255;-82
2022/03/02 03:45:22;;;;;;;11.10;10.00;;;4.60;99.90;;;;;;5008179;28;20195;-83
2022/03/02 03:47:48;;;;;;;16.37;9.60;;;5.20;99.90;;;;;;5009752;28;20482;-82
2022/03/02 03:50:14;;;;;;;10.38;9.32;;;3.30;99.90;;;;;;5025922;28;20200;-82
2022/03/02 03:52:44;;;;;;;9.43;8.43;;;3.70;99.90;;;;;;5009167;28;20238;-83
2022/03/02 03:55:11;;;;;;;11.18;9.48;;;3.40;99.90;;;;;;5042211;28;20986;-81
2022/03/02 03:57:37;;;;;;;11.88;10.02;;;3.30;99.90;;;;;;5027227;28;20880;-82
2022/03/02 04:00:09;;;;;;;12.87;10.00;;;4.20;99.90;;;;;;5026724;28;20186;-82
2022/03/02 04:02:35;;;;;;;12.02;9.50;;;3.30;99.90;;;;;;5013345;28;20510;-82
2022/03/02 04:05:01;;;;;;;17.73;10.53;;;3.00;99.90;;;;;;5027668;28;20286;-82
2022/03/02 04:13:56;;;;;;;;;;;;;;;;;;;;;
2022/03/02 04:16:47;;;;;;;11.00;9.50;;;3.60;99.90;;;;;;5040629;28;20205;-83
2022/03/02 04:22:27;;;;;;;10.93;9.73;;;;;;;;;;4332243;28;10000729;-82
2022/03/02 04:24:53;;;;;;;12.50;9.00;;;3.20;99.90;;;;;;5026330;28;20576;-83
2022/03/02 04:27:18;;;;;;;11.00;9.87;;;6.10;99.90;;;;;;5041647;28;20195;-82
2022/03/02 04:29:45;;;;;;;11.20;10.03;;;3.20;99.90;;;;;;5025770;28;20483;-83
2022/03/02 04:32:10;;;;;;;16.92;11.13;;;1.10;99.90;;;;;;5019362;28;20433;-83
2022/03/02 04:34:36;;;;;;;10.53;9.23;;;2.80;99.90;;;;;;5022982;28;20191;-83
2022/03/02 04:37:02;;;;;;;13.60;10.93;;;2.90;99.90;;;;;;5023926;28;20670;-82
2022/03/02 04:39:28;;;;;;;14.07;9.40;;;3.50;99.90;;;;;;5041827;28;20193;-83
2022/03/02 04:41:53;;;;;;;11.13;9.70;;;5.70;99.90;;;;;;5032633;28;20435;-82
2022/03/02 04:44:19;;;;;;;12.70;9.83;;;3.20;99.90;;;;;;5025448;28;20715;-83
2022/03/02 04:46:48;;;;;;;12.30;10.67;;;3.50;99.90;;;;;;5041936;28;20187;-83
2022/03/02 04:49:17;;;;;;;12.20;9.85;;;6.60;99.90;;;;;;5045238;28;20282;-82
2022/03/02 04:51:44;;;;;;;9.43;8.37;;;4.50;99.90;;;;;;5043654;28;20191;-81
2022/03/02 04:55:05;;;;;;;15.20;9.57;;;2.80;99.90;;;;;;5028520;28;20426;-82
2022/03/02 04:56:55;;;;;;;10.30;9.30;;;4.80;99.90;;;;;;5039052;28;20195;-82
2022/03/02 04:59:24;;;;;;;12.80;11.03;;;4.30;99.90;;;;;;5046264;28;20266;-82
2022/03/02 05:01:49;;;;;;;12.50;10.48;;;6.00;99.90;;;;;;5044588;28;20199;-83
2022/03/02 05:04:15;;;;;;;10.20;8.53;;;;;;;;;;5028871;28;20189;-81
2022/03/02 05:06:41;;;;;;;15.80;9.83;;;2.70;99.90;;;;;;5044613;28;20229;-82
2022/03/02 05:09:07;;;;;;;14.40;9.00;;;4.40;99.90;;;;;;5028348;28;20469;-81
2022/03/02 05:11:33;;;;;;;13.43;10.50;;;;;;;;;;5044390;28;20952;-82
2022/03/02 05:13:59;;;;;;;10.88;9.77;;;2.60;99.90;;;;;;5046242;28;20228;-84
2022/03/02 05:16:24;;;;;;;12.23;10.80;;;4.90;99.90;;;;;;5035534;28;20196;-82
2022/03/02 05:18:50;;;;;;;12.90;9.03;;;;;;;;;;5028002;28;20198;-82
2022/03/02 05:21:16;;;;;;;11.77;9.90;;;2.50;99.90;;;;;;5020137;28;20189;-82
2022/03/02 05:23:42;;;;;;;11.93;9.90;;;3.00;99.90;;;;;;5027946;28;20430;-82
2022/03/02 05:26:09;;;;;;;9.57;8.57;;;1.90;99.90;;;;;;5026525;28;20254;-82
2022/03/02 05:28:55;;;;;;;10.27;9.00;;;3.60;99.90;;;;;;5028587;28;20219;-82
2022/03/02 05:31:24;;;;;;;12.30;9.25;;;2.90;99.90;;;;;;5018428;28;20478;-83
2022/03/02 05:33:51;;;;;;;16.85;9.95;;;3.40;99.90;;;;;;5046040;28;20461;-83
2022/03/02 05:36:18;;;;;;;14.13;9.73;;;3.00;99.90;;;;;;5045307;28;20183;-83
2022/03/02 05:38:43;;;;;;;15.25;10.27;;;4.00;99.90;;;;;;5046460;28;20182;-83
2022/03/02 05:41:21;;;;;;;15.33;10.70;;;2.30;99.90;;;;;;5029315;28;20217;-82
2022/03/02 05:43:47;;;;;;;10.85;9.75;;;3.50;99.90;;;;;;5029116;28;20183;-82
2022/03/02 05:46:13;;;;;;;13.48;10.25;;;2.40;99.90;;;;;;5044321;28;20207;-83
2022/03/02 05:48:39;;;;;;;11.32;9.15;;;5.10;99.90;;;;;;5046292;28;20207;-82
2022/03/02 05:51:05;;;;;;;14.90;9.97;;;6.20;99.90;;;;;;5044063;28;20195;-82
2022/03/02 05:53:30;;;;;;;19.03;10.37;;;7.20;99.90;;;;;;5040845;28;20196;-81
2022/03/02 05:56:07;;;;;;;14.50;10.07;;;4.80;99.90;;;;;;5045850;28;20909;-82
2022/03/02 05:58:33;;;;;;;13.55;9.90;;;1.90;99.90;;;;;;5009775;28;20196;-82
2022/03/02 06:01:09;;;;;;;;;;;;;;;;;;;;;
2022/03/02 06:03:35;;;;;;;11.63;10.40;;;2.60;99.90;;;;;;5032586;28;20208;-81
2022/03/02 06:06:01;;;;;;;15.60;11.77;;;;;;;;;;5044666;28;20282;-83
2022/03/02 06:08:27;;;;;;;15.70;10.98;;;2.10;99.90;;;;;;5038786;28;20277;-83
2022/03/02 06:10:53;;;;;;;11.50;9.53;;;3.20;99.90;;;;;;5027438;28;20658;-83
2022/03/02 06:13:19;;;;;;;15.53;10.57;;;2.00;99.90;;;;;;5040558;23;20231;-90
2022/03/02 06:15:45;;;;;;;10.87;8.50;;;2.00;99.90;;;;;;5015435;28;20865;-91
2022/03/02 06:18:11;;;;;;;10.50;9.07;;;2.00;99.90;;;;;;5005797;28;20462;-89
2022/03/02 06:20:37;;;;;;;13.13;10.67;;;2.00;99.90;;;;;;5032014;28;20180;-90
2022/03/02 06:23:02;;;;;;;14.77;10.30;;;1.90;99.90;;;;;;5015792;28;20186;-90
2022/03/02 06:25:31;;;;;;;12.43;9.80;;;3.60;99.90;;;;;;5020429;28;21001;-91
2022/03/02 06:27:57;;;;;;;15.35;10.73;;;2.00;99.90;;;;;;5017958;28;20538;-89
2022/03/02 06:30:23;;;;;;;14.60;10.63;;;4.40;99.90;;;;;;5014863;28;20225;-86
2022/03/02 06:32:48;;;;;;;14.47;9.60;;;2.00;99.90;;;;;;5031750;28;20420;-89
2022/03/02 06:35:14;;;;;;;14.53;10.07;;;1.70;99.90;;;;;;5122128;23;20308;-86
2022/03/02 06:37:40;;;;;;;14.73;10.20;;;2.80;99.90;;;;;;5034059;28;20658;-87
2022/03/02 06:40:13;;;;;;;14.88;10.90;;;2.80;99.90;;;;;;5036273;28;20238;-85
2022/03/02 06:42:59;;;;;;;20.33;12.85;;;2.80;99.90;;;;;;5029243;28;20503;-87
2022/03/02 06:45:34;;;;;;;12.73;10.13;;;2.10;99.90;;;;;;5035153;28;20263;-88
2022/03/02 06:48:25;;;;;;;12.57;10.60;;;1.10;99.90;;;;;;5031663;28;20206;-86
2022/03/02 06:50:54;;;;;;;12.57;9.73;;;2.00;99.90;;;;;;5030394;28;20854;-85
2022/03/02 06:53:32;;;;;;;17.35;10.52;;;2.00;99.90;;;;;;5055766;28;20815;-86
2022/03/02 06:56:00;;;;;;;14.60;11.10;;;4.80;99.90;;;;;;5069244;28;20554;-84
2022/03/02 06:58:59;;;;;;;14.48;10.45;;;2.20;99.90;;;;;;5034533;28;20431;-88
2022/03/02 07:01:26;;;;;;;23.67;10.77;;;2.70;99.90;;;;;;5040156;28;20215;-85
2022/03/02 07:03:57;;;;;;;14.05;9.57;;;2.30;99.90;;;;;;5056323;28;20426;-83
2022/03/02 07:06:24;;;;;;;11.93;9.87;;;5.00;99.90;;;;;;4355932;28;10000428;-88
2022/03/02 07:08:50;;;;;;;12.40;11.10;;;2.30;99.90;;;;;;5038692;28;20246;-88
2022/03/02 07:11:17;;;;;;;12.82;9.75;;;3.20;99.90;;;;;;5040256;28;20286;-88
2022/03/02 07:13:44;;;;;;;12.60;9.02;;;3.60;99.90;;;;;;5048772;28;20199;-89
2022/03/02 07:16:12;;;;;;;15.03;10.57;;;2.80;99.90;;;;;;5045944;28;20582;-86
2022/03/02 07:18:37;;;;;;;12.10;10.85;;;2.50;99.90;;;;;;5049104;28;20765;-83
2022/03/02 07:21:11;;;;;;;11.80;9.73;;;2.90;99.90;;;;;;5045784;28;20274;-88
2022/03/02 07:23:50;;;;;;;11.47;10.33;;;3.00;99.90;;;;;;5042379;28;20180;-87
2022/03/02 07:26:18;;;;;;;13.40;10.43;;;2.80;99.90;;;;;;5046175;28;20464;-87
2022/03/02 07:28:47;;;;;;;16.30;11.20;;;3.90;99.90;;;;;;5049161;28;20429;-88
2022/03/02 07:31:13;;;;;;;9.43;8.02;;;4.10;99.90;;;;;;5053950;28;20529;-89
2022/03/02 07:33:42;;;;;;;12.18;9.30;;;3.50;99.90;;;;;;5048177;28;20226;-88
2022/03/02 07:36:11;;;;;;;12.73;10.90;;;5.70;99.90;;;;;;5051735;28;20219;-89
2022/03/02 07:38:47;;;;;;;13.03;9.87;;;3.50;99.90;;;;;;5051123;28;20488;-86
2022/03/02 07:41:25;;;;;;;13.57;10.70;;;3.90;99.90;;;;;;5052822;28;20524;-88
2022/03/02 07:44:06;;;;;;;11.77;10.50;;;4.10;99.90;;;;;;5056315;28;20416;-88
2022/03/02 07:46:33;;;;;;;12.13;8.80;;;2.90;99.90;;;;;;5063036;28;20621;-88
2022/03/02 07:48:59;;;;;;;12.20;8.93;;;5.90;99.90;;;;;;5053876;28;20834;-83
2022/03/02 07:51:26;;;;;;;11.85;10.45;;;6.40;99.90;;;;;;5048141;28;20417;-88
2022/03/02 07:54:06;;;;;;;10.80;9.73;;;5.10;99.90;;;;;;5042008;28;20192;-88
2022/03/02 07:56:33;;;;;;;11.53;10.30;;;6.70;99.90;;;;;;5041248;28;20434;-88
2022/03/02 07:59:18;;;;;;;9.87;8.90;;;7.30;99.90;;;;;;5041937;28;20940;-87
2022/03/02 08:01:53;;;;;;;11.43;10.27;;;7.10;99.90;;;;;;5068680;28;20571;-89
2022/03/02 08:04:23;;;;;;;15.00;11.27;;;7.70;99.90;;;;;;5193976;23;20442;-85
2022/03/02 08:06:49;;;;;;;10.00;9.10;;;8.90;99.90;;;;;;5019865;28;20824;-88
2022/03/02 08:09:15;;;;;;;10.20;9.30;;;9.30;99.00;;;;;;5028567;28;20876;-86
2022/03/02 08:11:41;;;;;;;10.73;9.73;;;9.10;96.90;;;;;;5028586;28;20429;-87
2022/03/02 08:14:07;;;;;;;10.17;9.10;;;10.90;94.70;;;;;;5011508;28;20243;-87
2022/03/02 08:16:33;;;;;;;10.33;9.50;;;11.10;86.80;;;;;;5010449;28;20188;-87
2022/03/02 08:19:01;;;;;;;11.83;10.73;;;10.30;74.60;;;;;;5013254;28;20484;-84
2022/03/02 08:21:35;;;;;;;11.80;10.60;;;12.00;64.90;;;;;;5010892;28;20953;-86
2022/03/02 08:24:06;;;;;;;12.03;10.70;;;12.60;57.80;;;;;;5012446;28;20461;-86
2022/03/02 08:26:33;;;;;;;11.83;10.70;;;13.50;54.60;;;;;;5027807;28;20435;-85
2022/03/02 08:29:06;;;;;;;12.40;11.20;;;13.40;51.60;;;;;;5011616;28;20434;-86
2022/03/02 08:31:34;;;;;;;12.93;11.50;;;14.80;59.50;;;;;;5025446;28;20525;-86
2022/03/02 08:34:01;;;;;;;11.93;10.83;;;15.00;45.70;;;;;;5010282;28;20429;-88
2022/03/02 08:36:33;;;;;;;13.73;12.50;;;15.60;43.80;;;;;;5021118;28;20731;-85
2022/03/02 08:39:00;;;;;;;13.63;12.20;;;15.90;41.90;;;;;;5010120;28;20869;-85
2022/03/02 08:41:26;;;;;;;12.40;11.43;;;16.20;40.20;;;;;;5002557;28;20515;-85
2022/03/02 08:43:52;;;;;;;11.57;10.57;;;16.20;38.90;;;;;;5030085;28;20427;-84
2022/03/02 08:46:17;;;;;;;13.57;12.37;;;16.20;38.10;;;;;;5012506;28;20184;-85
2022/03/02 08:48:43;;;;;;;12.33;11.23;;;16.20;37.50;;;;;;5031765;28;20202;-87
2022/03/02 08:51:09;;;;;;;16.17;12.67;;;16.50;37.10;;;;;;5028788;28;20215;-83
2022/03/02 08:53:37;;;;;;;13.13;11.80;;;17.00;36.50;;;;;;4663330;28;10000101;-86
2022/03/02 08:56:06;;;;;;;12.80;11.60;;;17.30;36.10;;;;;;5027786;28;20561;-86
2022/03/02 08:58:32;;;;;;;11.77;10.90;;;17.50;35.90;;;;;;5027652;28;20493;-86
2022/03/02 09:01:00;;;;;;;12.00;11.20;;;18.10;34.90;;;;;;5012241;28;20742;-86
2022/03/02 09:03:26;;;;;;;12.10;11.00;;;18.30;34.60;;;;;;5026478;28;20454;-87
2022/03/02 09:05:52;;;;;;;11.80;10.80;;;18.70;34.00;;;;;;5027495;28;21196;-86
2022/03/02 09:08:18;;;;;;;13.30;11.90;;;18.40;32.80;;;;;;5029852;28;20516;-88
2022/03/02 09:10:47;;;;;;;12.70;11.70;;;18.40;34.30;;;;;;5013431;28;20438;-87
2022/03/02 09:13:13;;;;;;;13.50;12.23;;;19.10;35.80;;;;;;5011056;28;20455;-88
2022/03/02 09:15:39;;;;;;;12.07;11.07;;;18.60;33.60;;;;;;5014539;28;21140;-88
2022/03/02 09:18:06;;;;;;;12.40;11.40;;;19.60;35.00;;;;;;5010870;28;20473;-86
2022/03/02 09:20:32;;;;;;;13.00;11.80;;;18.50;34.00;;;;;;5002309;28;20461;-87
2022/03/02 09:23:01;;;;;;;11.97;10.87;;;20.00;35.20;;;;;;5028639;28;20919;-86
2022/03/02 09:25:30;;;;;;;13.00;12.00;;;19.40;32.40;;;;;;4679868;28;10000425;-87
2022/03/02 09:27:57;;;;;;;12.70;11.50;;;18.90;31.50;;;;;;5025675;28;20514;-86
2022/03/02 09:30:23;;;;;;;12.07;11.10;;;19.00;31.50;;;;;;5007891;28;20633;-86
2022/03/02 09:32:53;;;;;;;13.47;12.23;;;19.90;31.90;;;;;;5024417;28;20537;-85
2022/03/02 09:35:21;;;;;;;12.60;11.33;;;20.00;30.70;;;;;;5025219;28;20423;-85
2022/03/02 09:37:49;;;;;;;12.87;11.97;;;21.30;30.00;;;;;;5006030;28;20491;-86
2022/03/02 09:40:27;;;;;;;12.20;11.00;;;21.20;30.20;;;;;;5004751;28;20941;-88
2022/03/02 09:43:07;;;;;;;11.20;10.40;;;21.70;29.10;;;;;;5014964;28;20411;-86
2022/03/02 09:45:34;;;;;;;13.00;11.97;;;21.70;28.80;;;;;;5004032;28;20454;-85
2022/03/02 09:48:03;;;;;;;14.43;13.20;;;22.20;28.80;;;;;;5029423;28;20446;-85
2022/03/02 09:50:38;;;;;;;13.00;11.90;;;21.70;27.90;;;;;;4998065;28;20442;-86
2022/03/02 09:53:08;;;;;;;11.40;10.50;;;21.80;28.70;;;;;;5008745;28;20960;-85
2022/03/02 09:55:35;;;;;;;10.83;10.13;;;22.30;28.20;;;;;;5014374;28;20506;-87
2022/03/02 09:58:02;;;;;;;12.47;11.23;;;22.40;28.00;;;;;;5011892;28;20960;-86
2022/03/02 10:00:30;;;;;;;13.27;10.17;;;22.20;28.00;;;;;;5013356;28;20445;-85
2022/03/02 10:03:01;;;;;;;12.07;11.00;;;21.90;27.90;;;;;;5012529;28;21035;-86
2022/03/02 10:05:31;;;;;;;11.30;10.30;;;21.60;27.70;;;;;;4992003;28;20491;-85
2022/03/02 10:08:00;;;;;;;11.67;10.77;;;22.10;27.40;;;;;;5010523;28;20445;-86
2022/03/02 10:10:31;;;;;;;11.67;10.90;;;22.60;27.10;;;;;;4994352;28;20806;-85
2022/03/02 10:12:59;;;;;;;13.63;12.43;;;23.00;27.00;;;;;;5009417;28;20460;-86
2022/03/02 10:15:25;;;;;;;12.20;11.03;;;23.10;26.70;;;;;;5018142;28;20472;-87
2022/03/02 10:17:53;;;;;;;11.23;10.37;;;23.50;26.30;;;;;;5013482;28;20582;-85
2022/03/02 10:20:24;;;;;;;15.20;13.80;;;23.50;26.30;;;;;;5008236;28;20937;-86
2022/03/02 10:22:53;;;;;;;12.03;10.97;;;23.20;26.20;;;;;;5013511;28;20445;-86
2022/03/02 10:25:39;;;;;;;12.73;11.47;;;22.80;26.50;;;;;;5023169;28;20630;-84
2022/03/02 10:28:07;;;;;;;13.43;12.10;;;22.30;26.20;;;;;;5018902;28;20833;-86
2022/03/02 10:30:39;;;;;;;10.53;9.83;;;22.80;26.50;;;;;;5010693;28;20843;-83
2022/03/02 10:33:22;;;;;;;12.30;11.30;;;22.90;26.10;;;;;;5030685;28;20529;-86
2022/03/02 10:35:57;;;;;;;12.80;11.70;;;22.20;26.10;;;;;;5027602;28;20934;-85
2022/03/02 10:38:59;;;;;;;13.33;12.20;;;22.00;26.40;;;;;;5009468;28;20481;-85
2022/03/02 10:41:34;;;;;;;12.77;11.77;;;22.20;26.20;;;;;;5029737;28;20438;-83
2022/03/02 10:44:14;;;;;;;11.53;10.63;;;22.50;26.00;;;;;;5004570;28;20900;-86
2022/03/02 10:46:45;;;;;;;13.33;12.03;;;22.20;26.00;;;;;;5027730;28;20493;-87
2022/03/02 10:49:20;;;;;;;16.40;14.70;;;22.70;26.00;;;;;;5006909;28;20426;-86
2022/03/02 10:51:47;;;;;;;12.33;11.43;;;22.80;26.30;;;;;;5011852;28;20446;-86
2022/03/02 10:54:18;;;;;;;18.53;15.67;;;22.90;25.80;;;;;;5011149;28;20442;-85
2022/03/02 10:56:44;;;;;;;15.80;14.50;;;22.70;26.20;;;;;;5032619;28;20457;-84
2022/03/02 10:59:17;;;;;;;13.37;12.20;;;24.30;25.50;;;;;;5011317;28;20474;-86
2022/03/02 11:01:44;;;;;;;11.80;10.77;;;24.30;25.80;;;;;;5015536;28;20467;-86
2022/03/02 11:04:11;;;;;;;12.17;11.37;;;24.40;25.70;;;;;;5033585;28;20699;-85
2022/03/02 11:06:38;;;;;;;12.23;11.40;;;24.00;25.60;;;;;;5034702;28;20469;-86
2022/03/02 11:09:08;;;;;;;14.10;12.80;;;24.50;25.70;;;;;;5012121;28;20930;-86
2022/03/02 11:11:37;;;;;;;12.60;11.70;;;23.90;25.60;;;;;;5012360;28;20518;-86
2022/03/02 11:14:08;;;;;;;11.50;10.63;;;24.10;25.50;;;;;;5010154;28;21026;-85
2022/03/02 11:16:33;;;;;;;13.97;12.67;;;23.90;25.30;;;;;;5012867;28;20422;-85
2022/03/02 11:19:11;;;;;;;13.00;12.10;;;24.10;26.30;;;;;;5028213;28;20462;-86
2022/03/02 11:21:39;;;;;;;12.60;11.60;;;23.20;25.50;;;;;;4662992;28;10000679;-85
2022/03/02 11:24:07;;;;;;;12.07;11.17;;;22.90;25.20;;;;;;5014796;28;20607;-86
2022/03/02 11:26:39;;;;;;;12.20;11.30;;;22.00;25.00;;;;;;5017006;28;20799;-86
2022/03/02 11:29:12;;;;;;;12.50;11.53;;;21.90;25.00;;;;;;5021929;28;20418;-86
2022/03/02 11:31:56;;;;;;;12.10;11.13;;;21.30;25.60;;;;;;5015797;28;20418;-86
2022/03/02 11:34:24;;;;;;;12.23;11.23;;;22.70;25.70;;;;;;5018402;28;20422;-84
2022/03/02 11:37:01;;;;;;;13.27;12.20;;;22.90;26.80;;;;;;5017419;28;20437;-87
2022/03/02 11:39:28;;;;;;;11.30;10.60;;;22.70;25.40;;;;;;5014962;28;20442;-87
2022/03/02 11:42:00;;;;;;;11.83;10.90;;;24.00;26.20;;;;;;5012661;28;20805;-86
2022/03/02 11:44:37;;;;;;;12.17;11.40;;;23.80;25.90;;;;;;5010618;28;20485;-84
2022/03/02 11:47:06;;;;;;;11.27;10.37;;;24.00;25.60;;;;;;5002055;28;20454;-88
2022/03/02 11:50:04;;;;;;;12.50;11.20;;;22.70;24.90;;;;;;4997564;28;20522;-86
2022/03/02 11:52:33;;;;;;;13.23;12.30;;;24.30;25.30;;;;;;5009542;28;20426;-83
2022/03/02 11:55:00;;;;;;;11.87;11.00;;;23.30;25.20;;;;;;5137847;23;20455;-83
2022/03/02 11:57:28;;;;;;;13.10;11.97;;;23.30;25.40;;;;;;5028101;28;20438;-86
2022/03/02 12:00:14;;;;;;;12.73;11.73;;;22.10;24.50;;;;;;5034477;28;20422;-86
2022/03/02 12:02:58;;;;;;;12.87;11.83;;;21.70;25.30;;;;;;5028111;28;20434;-86
2022/03/02 12:05:31;;;;;;;12.33;11.37;;;21.80;25.30;;;;;;5012783;28;20438;-85
2022/03/02 12:08:04;;;;;;;11.43;10.53;;;21.90;25.50;;;;;;5029408;28;20419;-85
2022/03/02 12:10:34;;;;;;;13.80;12.50;;;22.00;25.60;;;;;;5026198;28;20463;-83
2022/03/02 12:13:25;;;;;;;14.30;11.27;;;21.70;25.20;;;;;;5120658;23;20913;-85
2022/03/02 12:16:46;;;;;;;12.47;11.57;;;22.10;25.70;;;;;;5048310;28;20521;-81
2022/03/02 12:19:26;;;;;;;13.53;12.17;;;21.20;24.50;;;;;;5032095;28;20445;-85
2022/03/02 12:22:13;;;;;;;12.03;11.00;;;22.80;25.40;;;;;;5030482;28;20442;-84
2022/03/02 12:24:39;;;;;;;12.03;11.13;;;22.70;25.70;;;;;;5031117;28;20513;-85
2022/03/02 12:27:12;;;;;;;12.30;11.20;;;23.00;26.10;;;;;;5034064;28;20422;-86
2022/03/02 12:29:42;;;;;;;11.70;10.87;;;23.10;25.20;;;;;;5048739;28;21198;-85
2022/03/02 12:32:17;;;;;;;11.60;10.80;;;22.60;25.10;;;;;;5054189;28;20792;-81
2022/03/02 12:34:46;;;;;;;12.00;11.10;;;22.60;24.90;;;;;;5031548;28;20532;-83
2022/03/02 12:37:15;;;;;;;11.43;10.63;;;21.40;24.80;;;;;;5047694;28;20406;-83
2022/03/02 12:39:52;;;;;;;11.63;10.53;;;21.80;25.20;;;;;;5046109;28;20935;-83
2022/03/02 12:42:28;;;;;;;11.60;10.80;;;21.60;25.30;;;;;;5020536;28;20430;-85
2022/03/02 12:44:58;;;;;;;11.30;10.60;;;21.70;24.40;;;;;;5027410;28;20406;-84
2022/03/02 12:47:33;;;;;;;13.03;12.10;;;21.90;25.00;;;;;;5028985;28;20441;-79
2022/03/02 12:50:13;;;;;;;12.40;11.30;;;22.90;25.30;;;;;;5009694;28;20474;-83
2022/03/02 12:52:48;;;;;;;10.90;10.30;;;23.10;24.60;;;;;;5036973;28;20453;-84
2022/03/02 12:55:26;;;;;;;10.57;9.87;;;23.70;25.40;;;;;;5029147;28;20507;-84
2022/03/02 12:57:54;;;;;;;11.33;10.63;;;23.20;24.90;;;;;;5043381;28;20798;-81
2022/03/02 13:00:24;;;;;;;11.10;10.30;;;23.10;25.50;;;;;;5027584;28;20477;-85
2022/03/02 13:03:06;;;;;;;12.20;11.20;;;23.10;24.60;;;;;;5024977;28;20439;-85